Cochise — WDD8952 — position and weather

sailwx.info

Track history (hours):
 
Tides and Currents Weather Stations Pressure Air Temp Water Temp Dewpoint Dewpoint Depression Visibility Wind Speed Wind Dir Waves Ship Positions

Cochise

Owner: Sause Bros, Coos Bay, OR. More information available from US FCC via Universal Licensing System and Coast Guard Vessel Documentation Center.

Last reported at 2017-May-24 01:40 UTC. Time now 2017-May-24 02:19 UTC.
Position N 37°55' W 122°25'.

Length 32 m; draft 4.6 m.

Type: Towing. MMSI: 367304990.

Date/timePositionNaut miles runAvg speedWind from/ knotsBaromVisibWave heightAir tempDewpointWater temp
2017-May-24 01:40N 37°55' W 122°25'0 0.0
2017-May-24 01:10N 37°55' W 122°25'0 0.0
2017-May-24 00:31N 37°55' W 122°25'0 0.0
2017-May-24 00:25N 37°55' W 122°25'0 0.0
2017-May-23 23:58N 37°55' W 122°25'0 0.0
2017-May-23 23:28N 37°55' W 122°25'0 0.0
2017-May-23 22:55N 37°55' W 122°25'0 0.0
2017-May-23 22:19N 37°55' W 122°25'0 0.0
2017-May-23 21:58N 37°55' W 122°25'0 0.0
2017-May-23 21:28N 37°55' W 122°25'0 0.0
2017-May-23 20:58N 37°55' W 122°25'0 0.0
2017-May-23 20:28N 37°55' W 122°25'0 0.0
2017-May-23 19:55N 37°55' W 122°25'0 0.0
2017-May-23 19:13N 37°55' W 122°25'0 0.0
2017-May-23 18:49N 37°55' W 122°25'0 0.0
2017-May-23 18:13N 37°55' W 122°25'0 0.0
2017-May-23 17:55N 37°55' W 122°25'0 0.0
2017-May-23 17:25N 37°55' W 122°25'0 0.0
2017-May-23 16:55N 37°55' W 122°25'0 0.0
2017-May-23 16:25N 37°55' W 122°25'0 0.0
2017-May-23 15:55N 37°55' W 122°25'0 0.0
2017-May-23 15:28N 37°55' W 122°25'0 0.0
2017-May-23 14:55N 37°55' W 122°25'0 0.0
2017-May-23 14:22N 37°55' W 122°25'0 0.0
2017-May-23 13:25N 37°55' W 122°25'0 0.0
2017-May-23 12:58N 37°55' W 122°25'0 0.0
2017-May-23 12:28N 37°55' W 122°25'0 0.0
2017-May-23 11:58N 37°55' W 122°25'0 0.0
2017-May-23 11:28N 37°55' W 122°25'0 0.0
2017-May-23 10:58N 37°55' W 122°25'0 0.0
2017-May-23 10:28N 37°55' W 122°25'0 0.0
2017-May-23 09:58N 37°55' W 122°25'0 0.0
2017-May-23 09:28N 37°55' W 122°25'0 0.0
2017-May-23 08:58N 37°55' W 122°25'0 0.0
2017-May-23 08:25N 37°55' W 122°25'0 0.0
2017-May-23 07:58N 37°55' W 122°25'0 0.0
2017-May-23 07:28N 37°55' W 122°25'0 0.0
2017-May-23 06:58N 37°55' W 122°25'0 0.0
2017-May-23 06:28N 37°55' W 122°25'0 0.0
2017-May-23 05:59N 37°55' W 122°25'0 0.3
2017-May-23 05:30N 37°55' W 122°25'0 0.0
2017-May-23 05:00N 37°55' W 122°25'1 2.5
2017-May-23 04:30N 37°54' W 122°25'5 9.1
2017-May-23 04:01N 37°50' W 122°24'611.9
2017-May-23 03:31N 37°48' W 122°32'611.0
2017-May-23 03:00N 37°46' W 122°38'5 9.7
2017-May-23 02:29N 37°46' W 122°45'5 9.8
2017-May-23 02:00N 37°48' W 122°50'5 9.9
2017-May-23 01:30N 37°50' W 122°56'5 9.7
2017-May-23 01:00N 37°53' W 123°01'5 9.9
2017-May-23 00:30N 37°55' W 123°06'5 9.8
2017-May-23 00:00N 37°58' W 123°12'5 9.8
2017-May-22 23:30N 38°02' W 123°16'5 9.9
2017-May-22 23:00N 38°06' W 123°20'510.1
2017-May-22 22:30N 38°10' W 123°23'510.5
2017-May-22 22:00N 38°14' W 123°27'510.6
2017-May-22 21:30N 38°19' W 123°30'510.8
2017-May-22 21:00N 38°24' W 123°34'510.6
2017-May-22 20:30N 38°28' W 123°37'510.4
2017-May-22 20:00N 38°33' W 123°40'510.4
2017-May-22 19:30N 38°37' W 123°44'510.4
2017-May-22 19:00N 38°42' W 123°47'510.0
2017-May-22 18:30N 38°46' W 123°51'5 9.8
2017-May-22 18:00N 38°50' W 123°54'67 1.6
2017-May-21 00:35N 39°52' W 124°26'67 4.7
2017-May-20 10:17N 38°48' W 123°59'2 5.7
2017-May-20 09:59N 38°47' W 123°58'3 5.6
2017-May-20 09:28N 38°45' W 123°55'3 5.1
2017-May-20 08:51N 38°42' W 123°53'4 5.3
2017-May-20 08:04N 38°39' W 123°49'1 5.7
2017-May-20 07:54N 38°38' W 123°49'2 5.6
2017-May-20 07:30N 38°36' W 123°47'3 5.5
2017-May-20 07:00N 38°34' W 123°45'5 5.5
2017-May-20 06:07N 38°30' W 123°41'2 5.5
2017-May-20 05:47N 38°29' W 123°39'2 5.5
2017-May-20 05:30N 38°28' W 123°38'3 5.7
2017-May-20 05:00N 38°26' W 123°36'3 5.8
2017-May-20 04:30N 38°23' W 123°34'3 5.8
2017-May-20 04:00N 38°21' W 123°31'3 5.8
2017-May-20 03:30N 38°19' W 123°29'3 5.7
2017-May-20 03:00N 38°16' W 123°27'3 5.8
2017-May-20 02:30N 38°14' W 123°25'3 6.5
2017-May-20 02:00N 38°12' W 123°22'3 6.6
2017-May-20 01:30N 38°09' W 123°19'4 7.0
2017-May-20 01:00N 38°06' W 123°16'3 7.1
2017-May-20 00:30N 38°04' W 123°14'4 7.2
2017-May-20 00:00N 38°01' W 123°11'5 7.7
2017-May-19 23:20N 37°58' W 123°06'3 7.8
2017-May-19 23:00N 37°56' W 123°03'4 8.0
2017-May-19 22:30N 37°54' W 122°58'4 8.0
2017-May-19 22:00N 37°52' W 122°54'4 7.9
2017-May-19 21:30N 37°50' W 122°50'4 8.0
2017-May-19 21:00N 37°48' W 122°45'5 9.2
2017-May-19 20:30N 37°46' W 122°40'5 9.5
2017-May-19 20:00N 37°47' W 122°34'611.8
2017-May-19 19:31N 37°50' W 122°27'4 8.9
2017-May-19 19:00N 37°54' W 122°25'2 3.7
2017-May-19 18:30N 37°55' W 122°25'0 0.0
2017-May-19 18:00N 37°55' W 122°25'0 0.6
2017-May-19 17:30N 37°55' W 122°25'0 0.1
2017-May-19 17:00N 37°55' W 122°25'0 0.0
2017-May-19 16:30N 37°55' W 122°25'0 0.0
2017-May-19 16:00N 37°55' W 122°25'0 0.0
2017-May-19 15:30N 37°55' W 122°25'0 0.0
2017-May-19 15:00N 37°55' W 122°25'0 0.0
2017-May-19 14:30N 37°55' W 122°25'0 0.0
2017-May-19 13:30N 37°55' W 122°25'0 0.0
2017-May-19 13:00N 37°55' W 122°25'0 0.0
2017-May-19 12:30N 37°55' W 122°25'0 0.0
2017-May-19 12:00N 37°55' W 122°25'0 0.0
2017-May-19 11:30N 37°55' W 122°25'0 0.0
2017-May-19 11:00N 37°55' W 122°25'0 0.0
2017-May-19 10:30N 37°55' W 122°25'0 0.0
2017-May-19 09:57N 37°55' W 122°25'0 0.0
2017-May-19 09:30N 37°55' W 122°25'0 0.0
2017-May-19 09:00N 37°55' W 122°25'0 0.0
2017-May-19 08:30N 37°55' W 122°25'0 0.0
2017-May-19 08:00N 37°55' W 122°25'0 0.0
2017-May-19 07:30N 37°55' W 122°25'0 0.0
2017-May-19 07:00N 37°55' W 122°25'0 0.0
2017-May-19 06:30N 37°55' W 122°25'0 0.0
2017-May-19 06:00N 37°55' W 122°25'0 0.0
2017-May-19 05:27N 37°55' W 122°25'0 0.0
2017-May-19 04:57N 37°55' W 122°25'0 0.5
2017-May-19 04:28N 37°55' W 122°25'0 0.1
2017-May-19 04:00N 37°55' W 122°25'3 6.3
2017-May-19 03:29N 37°59' W 122°26'3 7.4
2017-May-19 03:01N 38°01' W 122°23'4 7.5
2017-May-19 02:31N 38°03' W 122°19'4 7.5
2017-May-19 02:00N 38°04' W 122°14'4 6.9
2017-May-19 01:29N 38°02' W 122°10'3 0.2
2017-May-18 06:21N 38°03' W 122°06'0 0.1
2017-May-18 06:00N 38°03' W 122°06'1 1.2
2017-May-18 05:11N 38°02' W 122°07'1 7.7
2017-May-18 05:00N 38°02' W 122°09'4 7.5
2017-May-18 04:30N 38°04' W 122°13'4 7.8
2017-May-18 04:00N 38°03' W 122°18'4 7.7
2017-May-18 03:30N 38°02' W 122°22'4 7.9
2017-May-18 03:01N 37°59' W 122°25'4 7.1
2017-May-18 02:31N 37°55' W 122°26'0 0.9
2017-May-18 02:00N 37°55' W 122°26'0 0.2
2017-May-18 01:30N 37°55' W 122°26'0 0.0
2017-May-18 01:00N 37°55' W 122°26'0 0.0
2017-May-18 00:27N 37°55' W 122°26'0 0.0
2017-May-17 23:57N 37°55' W 122°26'0 0.0
2017-May-17 23:27N 37°55' W 122°26'0 0.0
2017-May-17 22:57N 37°55' W 122°26'0 0.0
2017-May-17 22:30N 37°55' W 122°26'0 0.1
2017-May-17 22:00N 37°55' W 122°26'0 0.0
2017-May-17 21:30N 37°55' W 122°26'0 0.0
2017-May-17 21:00N 37°55' W 122°26'0 0.0
2017-May-17 20:30N 37°55' W 122°26'0 0.1
2017-May-17 19:57N 37°54' W 122°26'0 0.0
2017-May-17 19:27N 37°54' W 122°26'0 0.0
2017-May-17 19:00N 37°54' W 122°26'0 0.0
2017-May-17 18:21N 37°54' W 122°26'0 0.0
2017-May-17 18:00N 37°54' W 122°26'0 0.0
2017-May-17 17:30N 37°54' W 122°26'0 0.0
2017-May-17 16:51N 37°54' W 122°26'0 0.0
2017-May-17 16:27N 37°54' W 122°26'0 0.0
2017-May-17 15:57N 37°54' W 122°26'0 0.0
2017-May-17 15:30N 37°55' W 122°26'0 0.1
2017-May-17 14:57N 37°55' W 122°26'0 0.1
2017-May-17 14:00N 37°55' W 122°26'0 0.1
2017-May-17 13:30N 37°55' W 122°26'0 0.0
2017-May-17 13:00N 37°55' W 122°26'0 0.0
2017-May-17 12:30N 37°55' W 122°26'0 0.0
2017-May-17 12:00N 37°55' W 122°26'0 0.0
2017-May-17 11:30N 37°55' W 122°26'0 0.0
2017-May-17 10:57N 37°55' W 122°26'0 0.0
2017-May-17 10:27N 37°55' W 122°26'0 0.0
2017-May-17 10:00N 37°55' W 122°26'0 0.0
2017-May-17 09:30N 37°55' W 122°26'0 0.0
2017-May-17 08:57N 37°55' W 122°26'0 1.0
2017-May-17 08:30N 37°55' W 122°26'1 1.7
2017-May-17 08:01N 37°55' W 122°25'0 0.8
2017-May-17 07:31N 37°55' W 122°24'0 0.2
2017-May-17 06:59N 37°55' W 122°25'0 0.0
2017-May-17 06:29N 37°55' W 122°25'0 0.0
2017-May-17 05:59N 37°55' W 122°25'0 0.0
2017-May-17 05:30N 37°55' W 122°25'0 0.0
2017-May-17 05:00N 37°55' W 122°25'0 0.0
2017-May-17 04:30N 37°55' W 122°25'0 0.0
2017-May-17 04:00N 37°55' W 122°25'0 0.0
2017-May-17 03:30N 37°55' W 122°25'0 0.0
2017-May-17 03:00N 37°55' W 122°25'0 0.0
2017-May-17 02:30N 37°55' W 122°25'0 0.0
2017-May-17 02:00N 37°55' W 122°25'0 0.0
2017-May-17 01:30N 37°55' W 122°25'0 0.0
2017-May-17 01:00N 37°55' W 122°25'0 0.0
2017-May-17 00:30N 37°55' W 122°25'0 0.0
2017-May-17 00:00N 37°55' W 122°25'0 0.0
2017-May-16 23:22N 37°55' W 122°25'0 0.0
2017-May-16 22:58N 37°55' W 122°25'0 0.0
2017-May-16 22:28N 37°55' W 122°25'0 0.0
2017-May-16 21:58N 37°55' W 122°25'0 0.0
2017-May-16 21:28N 37°55' W 122°25'0 0.0
2017-May-16 20:58N 37°55' W 122°25'0 0.0
2017-May-16 20:28N 37°55' W 122°25'0 0.0
2017-May-16 19:58N 37°55' W 122°25'0 0.0
2017-May-16 19:28N 37°55' W 122°25'0 0.0
2017-May-16 18:52N 37°55' W 122°25'0 0.0
2017-May-16 18:28N 37°55' W 122°25'0 0.0
2017-May-16 17:52N 37°55' W 122°25'0 0.0
2017-May-16 17:28N 37°55' W 122°25'0 0.0
2017-May-16 16:34N 37°55' W 122°25'0 0.0
2017-May-16 16:10N 37°55' W 122°25'0 0.0
2017-May-16 15:34N 37°55' W 122°25'0 0.0
2017-May-16 15:28N 37°55' W 122°25'0 0.0
2017-May-16 14:52N 37°55' W 122°25'0 0.0
2017-May-16 14:28N 37°55' W 122°25'0 0.1
2017-May-16 13:30N 37°55' W 122°24'0 0.6
2017-May-16 13:00N 37°55' W 122°25'2 4.0
2017-May-16 12:29N 37°57' W 122°26'4 8.7
2017-May-16 12:00N 38°01' W 122°23'4 8.6
2017-May-16 11:30N 38°03' W 122°18'4 8.4
2017-May-16 11:00N 38°04' W 122°13'4 0.2
2017-May-15 13:59N 38°02' W 122°08'4 6.1
2017-May-15 13:21N 38°04' W 122°12'2 6.9
2017-May-15 13:00N 38°04' W 122°15'3 6.9
2017-May-15 12:30N 38°03' W 122°20'4 7.1
2017-May-15 12:00N 38°01' W 122°24'4 7.1
2017-May-15 11:28N 37°58' W 122°26'3 5.5
2017-May-15 11:00N 37°55' W 122°25'0 0.0
2017-May-15 10:30N 37°55' W 122°25'0 0.4
2017-May-15 09:52N 37°55' W 122°25'0 0.0
2017-May-15 09:28N 37°55' W 122°25'0 0.0
2017-May-15 08:52N 37°55' W 122°25'0 0.0
2017-May-15 08:28N 37°55' W 122°25'0 0.0
2017-May-15 07:52N 37°55' W 122°25'0 0.0
2017-May-15 07:28N 37°55' W 122°25'0 0.0
2017-May-15 06:58N 37°55' W 122°25'0 0.0
2017-May-15 06:28N 37°55' W 122°25'0 0.0
2017-May-15 05:58N 37°55' W 122°25'0 0.0
2017-May-15 05:22N 37°55' W 122°25'0 0.0
2017-May-15 04:58N 37°55' W 122°25'0 0.0
2017-May-15 04:22N 37°55' W 122°25'0 0.0
2017-May-15 03:55N 37°55' W 122°25'0 0.0
2017-May-15 03:25N 37°55' W 122°25'0 0.0
2017-May-15 02:58N 37°55' W 122°25'0 0.0
2017-May-15 02:25N 37°55' W 122°25'0 0.0
2017-May-15 01:43N 37°55' W 122°25'0 0.0
2017-May-15 01:22N 37°55' W 122°25'0 0.0
2017-May-15 00:58N 37°55' W 122°25'0 0.0
2017-May-15 00:28N 37°55' W 122°25'0 0.0
2017-May-14 23:55N 37°55' W 122°25'0 0.0
2017-May-14 23:25N 37°55' W 122°25'0 0.0
2017-May-14 22:58N 37°55' W 122°25'0 0.0
2017-May-14 22:28N 37°55' W 122°25'0 0.0
2017-May-14 21:58N 37°55' W 122°25'0 0.0
2017-May-14 21:28N 37°55' W 122°25'0 0.0
2017-May-14 20:58N 37°55' W 122°25'0 0.0
2017-May-14 20:28N 37°55' W 122°25'0 0.0
2017-May-14 19:58N 37°55' W 122°25'0 0.0
2017-May-14 19:28N 37°55' W 122°25'0 0.0
2017-May-14 18:58N 37°55' W 122°25'0 0.0
2017-May-14 18:28N 37°55' W 122°25'0 0.0
2017-May-14 17:58N 37°55' W 122°25'0 0.0
2017-May-14 17:22N 37°55' W 122°25'0 0.0
2017-May-14 16:58N 37°55' W 122°25'0 0.0
2017-May-14 16:28N 37°55' W 122°25'0 0.0
2017-May-14 15:58N 37°55' W 122°25'0 0.0
2017-May-14 15:29N 37°55' W 122°25'0 0.5
2017-May-14 14:59N 37°55' W 122°25'1 1.6
2017-May-14 14:30N 37°55' W 122°25'6 6.5
2017-May-14 13:30N 37°48' W 122°23'2 3.8
2017-May-14 13:00N 37°46' W 122°23'0 0.0
2017-May-14 12:30N 37°46' W 122°23'0 0.0
2017-May-14 12:00N 37°46' W 122°23'0 0.0
2017-May-14 11:30N 37°46' W 122°23'0 0.0
2017-May-14 10:58N 37°46' W 122°23'0 0.0
2017-May-14 10:28N 37°46' W 122°23'0 0.0
2017-May-14 09:58N 37°46' W 122°23'0 0.0
2017-May-14 09:28N 37°46' W 122°23'0 0.0
2017-May-14 08:58N 37°46' W 122°23'0 0.0
2017-May-14 08:28N 37°46' W 122°23'0 0.0
2017-May-14 07:59N 37°46' W 122°23'0 0.0
2017-May-14 07:28N 37°46' W 122°23'0 0.0
2017-May-14 06:59N 37°46' W 122°23'0 0.0
2017-May-14 06:28N 37°46' W 122°23'0 0.0
2017-May-14 05:59N 37°46' W 122°23'0 0.0
2017-May-14 05:29N 37°46' W 122°23'0 0.0
2017-May-14 04:59N 37°46' W 122°23'0 0.0
2017-May-14 04:28N 37°46' W 122°23'0 0.0
2017-May-14 03:58N 37°46' W 122°23'0 0.0
2017-May-14 03:25N 37°46' W 122°23'0 0.0
2017-May-14 02:58N 37°46' W 122°23'0 0.0
2017-May-14 02:28N 37°46' W 122°23'0 0.0
2017-May-14 01:56N 37°46' W 122°23'  
Track history (hours):
 
Tides and Currents Weather Stations Pressure Air Temp Water Temp Dewpoint Dewpoint Depression Visibility Wind Speed Wind Dir Waves Ship Positions

Cochise

Owner: Sause Bros, Coos Bay, OR. More information available from US FCC via Universal Licensing System and Coast Guard Vessel Documentation Center.

Last reported at 2017-May-24 01:40 UTC. Time now 2017-May-24 02:19 UTC.
Position N 37°55' W 122°25'.

Length 32 m; draft 4.6 m.

Type: Towing. MMSI: 367304990.

Date/timePositionNaut miles runAvg speedWind from/ knotsBaromVisibWave heightAir tempDewpointWater temp
2017-May-24 01:40N 37°55' W 122°25'0 0.0
2017-May-24 01:10N 37°55' W 122°25'0 0.0
2017-May-24 00:31N 37°55' W 122°25'0 0.0
2017-May-24 00:25N 37°55' W 122°25'0 0.0
2017-May-23 23:58N 37°55' W 122°25'0 0.0
2017-May-23 23:28N 37°55' W 122°25'0 0.0
2017-May-23 22:55N 37°55' W 122°25'0 0.0
2017-May-23 22:19N 37°55' W 122°25'0 0.0
2017-May-23 21:58N 37°55' W 122°25'0 0.0
2017-May-23 21:28N 37°55' W 122°25'0 0.0
2017-May-23 20:58N 37°55' W 122°25'0 0.0
2017-May-23 20:28N 37°55' W 122°25'0 0.0
2017-May-23 19:55N 37°55' W 122°25'0 0.0
2017-May-23 19:13N 37°55' W 122°25'0 0.0
2017-May-23 18:49N 37°55' W 122°25'0 0.0
2017-May-23 18:13N 37°55' W 122°25'0 0.0
2017-May-23 17:55N 37°55' W 122°25'0 0.0
2017-May-23 17:25N 37°55' W 122°25'0 0.0
2017-May-23 16:55N 37°55' W 122°25'0 0.0
2017-May-23 16:25N 37°55' W 122°25'0 0.0
2017-May-23 15:55N 37°55' W 122°25'0 0.0
2017-May-23 15:28N 37°55' W 122°25'0 0.0
2017-May-23 14:55N 37°55' W 122°25'0 0.0
2017-May-23 14:22N 37°55' W 122°25'0 0.0
2017-May-23 13:25N 37°55' W 122°25'0 0.0
2017-May-23 12:58N 37°55' W 122°25'0 0.0
2017-May-23 12:28N 37°55' W 122°25'0 0.0
2017-May-23 11:58N 37°55' W 122°25'0 0.0
2017-May-23 11:28N 37°55' W 122°25'0 0.0
2017-May-23 10:58N 37°55' W 122°25'0 0.0
2017-May-23 10:28N 37°55' W 122°25'0 0.0
2017-May-23 09:58N 37°55' W 122°25'0 0.0
2017-May-23 09:28N 37°55' W 122°25'0 0.0
2017-May-23 08:58N 37°55' W 122°25'0 0.0
2017-May-23 08:25N 37°55' W 122°25'0 0.0
2017-May-23 07:58N 37°55' W 122°25'0 0.0
2017-May-23 07:28N 37°55' W 122°25'0 0.0
2017-May-23 06:58N 37°55' W 122°25'0 0.0
2017-May-23 06:28N 37°55' W 122°25'0 0.0
2017-May-23 05:59N 37°55' W 122°25'0 0.3
2017-May-23 05:30N 37°55' W 122°25'0 0.0
2017-May-23 05:00N 37°55' W 122°25'1 2.5
2017-May-23 04:30N 37°54' W 122°25'5 9.1
2017-May-23 04:01N 37°50' W 122°24'611.9
2017-May-23 03:31N 37°48' W 122°32'611.0
2017-May-23 03:00N 37°46' W 122°38'5 9.7
2017-May-23 02:29N 37°46' W 122°45'5 9.8
2017-May-23 02:00N 37°48' W 122°50'5 9.9
2017-May-23 01:30N 37°50' W 122°56'5 9.7
2017-May-23 01:00N 37°53' W 123°01'5 9.9
2017-May-23 00:30N 37°55' W 123°06'5 9.8
2017-May-23 00:00N 37°58' W 123°12'5 9.8
2017-May-22 23:30N 38°02' W 123°16'5 9.9
2017-May-22 23:00N 38°06' W 123°20'510.1
2017-May-22 22:30N 38°10' W 123°23'510.5
2017-May-22 22:00N 38°14' W 123°27'510.6
2017-May-22 21:30N 38°19' W 123°30'510.8
2017-May-22 21:00N 38°24' W 123°34'510.6
2017-May-22 20:30N 38°28' W 123°37'510.4
2017-May-22 20:00N 38°33' W 123°40'510.4
2017-May-22 19:30N 38°37' W 123°44'510.4
2017-May-22 19:00N 38°42' W 123°47'510.0
2017-May-22 18:30N 38°46' W 123°51'5 9.8
2017-May-22 18:00N 38°50' W 123°54'67 1.6
2017-May-21 00:35N 39°52' W 124°26'67 4.7
2017-May-20 10:17N 38°48' W 123°59'2 5.7
2017-May-20 09:59N 38°47' W 123°58'3 5.6
2017-May-20 09:28N 38°45' W 123°55'3 5.1
2017-May-20 08:51N 38°42' W 123°53'4 5.3
2017-May-20 08:04N 38°39' W 123°49'1 5.7
2017-May-20 07:54N 38°38' W 123°49'2 5.6
2017-May-20 07:30N 38°36' W 123°47'3 5.5
2017-May-20 07:00N 38°34' W 123°45'5 5.5
2017-May-20 06:07N 38°30' W 123°41'2 5.5
2017-May-20 05:47N 38°29' W 123°39'2 5.5
2017-May-20 05:30N 38°28' W 123°38'3 5.7
2017-May-20 05:00N 38°26' W 123°36'3 5.8
2017-May-20 04:30N 38°23' W 123°34'3 5.8
2017-May-20 04:00N 38°21' W 123°31'3 5.8
2017-May-20 03:30N 38°19' W 123°29'3 5.7
2017-May-20 03:00N 38°16' W 123°27'3 5.8
2017-May-20 02:30N 38°14' W 123°25'3 6.5
2017-May-20 02:00N 38°12' W 123°22'3 6.6
2017-May-20 01:30N 38°09' W 123°19'4 7.0
2017-May-20 01:00N 38°06' W 123°16'3 7.1
2017-May-20 00:30N 38°04' W 123°14'4 7.2
2017-May-20 00:00N 38°01' W 123°11'5 7.7
2017-May-19 23:20N 37°58' W 123°06'3 7.8
2017-May-19 23:00N 37°56' W 123°03'4 8.0
2017-May-19 22:30N 37°54' W 122°58'4 8.0
2017-May-19 22:00N 37°52' W 122°54'4 7.9
2017-May-19 21:30N 37°50' W 122°50'4 8.0
2017-May-19 21:00N 37°48' W 122°45'5 9.2
2017-May-19 20:30N 37°46' W 122°40'5 9.5
2017-May-19 20:00N 37°47' W 122°34'611.8
2017-May-19 19:31N 37°50' W 122°27'4 8.9
2017-May-19 19:00N 37°54' W 122°25'2 3.7
2017-May-19 18:30N 37°55' W 122°25'0 0.0
2017-May-19 18:00N 37°55' W 122°25'0 0.6
2017-May-19 17:30N 37°55' W 122°25'0 0.1
2017-May-19 17:00N 37°55' W 122°25'0 0.0
2017-May-19 16:30N 37°55' W 122°25'0 0.0
2017-May-19 16:00N 37°55' W 122°25'0 0.0
2017-May-19 15:30N 37°55' W 122°25'0 0.0
2017-May-19 15:00N 37°55' W 122°25'0 0.0
2017-May-19 14:30N 37°55' W 122°25'0 0.0
2017-May-19 13:30N 37°55' W 122°25'0 0.0
2017-May-19 13:00N 37°55' W 122°25'0 0.0
2017-May-19 12:30N 37°55' W 122°25'0 0.0
2017-May-19 12:00N 37°55' W 122°25'0 0.0
2017-May-19 11:30N 37°55' W 122°25'0 0.0
2017-May-19 11:00N 37°55' W 122°25'0 0.0
2017-May-19 10:30N 37°55' W 122°25'0 0.0
2017-May-19 09:57N 37°55' W 122°25'0 0.0
2017-May-19 09:30N 37°55' W 122°25'0 0.0
2017-May-19 09:00N 37°55' W 122°25'0 0.0
2017-May-19 08:30N 37°55' W 122°25'0 0.0
2017-May-19 08:00N 37°55' W 122°25'0 0.0
2017-May-19 07:30N 37°55' W 122°25'0 0.0
2017-May-19 07:00N 37°55' W 122°25'0 0.0
2017-May-19 06:30N 37°55' W 122°25'0 0.0
2017-May-19 06:00N 37°55' W 122°25'0 0.0
2017-May-19 05:27N 37°55' W 122°25'0 0.0
2017-May-19 04:57N 37°55' W 122°25'0 0.5
2017-May-19 04:28N 37°55' W 122°25'0 0.1
2017-May-19 04:00N 37°55' W 122°25'3 6.3
2017-May-19 03:29N 37°59' W 122°26'3 7.4
2017-May-19 03:01N 38°01' W 122°23'4 7.5
2017-May-19 02:31N 38°03' W 122°19'4 7.5
2017-May-19 02:00N 38°04' W 122°14'4 6.9
2017-May-19 01:29N 38°02' W 122°10'3 0.2
2017-May-18 06:21N 38°03' W 122°06'0 0.1
2017-May-18 06:00N 38°03' W 122°06'1 1.2
2017-May-18 05:11N 38°02' W 122°07'1 7.7
2017-May-18 05:00N 38°02' W 122°09'4 7.5
2017-May-18 04:30N 38°04' W 122°13'4 7.8
2017-May-18 04:00N 38°03' W 122°18'4 7.7
2017-May-18 03:30N 38°02' W 122°22'4 7.9
2017-May-18 03:01N 37°59' W 122°25'4 7.1
2017-May-18 02:31N 37°55' W 122°26'0 0.9
2017-May-18 02:00N 37°55' W 122°26'0 0.2
2017-May-18 01:30N 37°55' W 122°26'0 0.0
2017-May-18 01:00N 37°55' W 122°26'0 0.0
2017-May-18 00:27N 37°55' W 122°26'0 0.0
2017-May-17 23:57N 37°55' W 122°26'0 0.0
2017-May-17 23:27N 37°55' W 122°26'0 0.0
2017-May-17 22:57N 37°55' W 122°26'0 0.0
2017-May-17 22:30N 37°55' W 122°26'0 0.1
2017-May-17 22:00N 37°55' W 122°26'0 0.0
2017-May-17 21:30N 37°55' W 122°26'0 0.0
2017-May-17 21:00N 37°55' W 122°26'0 0.0
2017-May-17 20:30N 37°55' W 122°26'0 0.1
2017-May-17 19:57N 37°54' W 122°26'0 0.0
2017-May-17 19:27N 37°54' W 122°26'0 0.0
2017-May-17 19:00N 37°54' W 122°26'0 0.0
2017-May-17 18:21N 37°54' W 122°26'0 0.0
2017-May-17 18:00N 37°54' W 122°26'0 0.0
2017-May-17 17:30N 37°54' W 122°26'0 0.0
2017-May-17 16:51N 37°54' W 122°26'0 0.0
2017-May-17 16:27N 37°54' W 122°26'0 0.0
2017-May-17 15:57N 37°54' W 122°26'0 0.0
2017-May-17 15:30N 37°55' W 122°26'0 0.1
2017-May-17 14:57N 37°55' W 122°26'0 0.1
2017-May-17 14:00N 37°55' W 122°26'0 0.1
2017-May-17 13:30N 37°55' W 122°26'0 0.0
2017-May-17 13:00N 37°55' W 122°26'0 0.0
2017-May-17 12:30N 37°55' W 122°26'0 0.0
2017-May-17 12:00N 37°55' W 122°26'0 0.0
2017-May-17 11:30N 37°55' W 122°26'0 0.0
2017-May-17 10:57N 37°55' W 122°26'0 0.0
2017-May-17 10:27N 37°55' W 122°26'0 0.0
2017-May-17 10:00N 37°55' W 122°26'0 0.0
2017-May-17 09:30N 37°55' W 122°26'0 0.0
2017-May-17 08:57N 37°55' W 122°26'0 1.0
2017-May-17 08:30N 37°55' W 122°26'1 1.7
2017-May-17 08:01N 37°55' W 122°25'0 0.8
2017-May-17 07:31N 37°55' W 122°24'0 0.2
2017-May-17 06:59N 37°55' W 122°25'0 0.0
2017-May-17 06:29N 37°55' W 122°25'0 0.0
2017-May-17 05:59N 37°55' W 122°25'0 0.0
2017-May-17 05:30N 37°55' W 122°25'0 0.0
2017-May-17 05:00N 37°55' W 122°25'0 0.0
2017-May-17 04:30N 37°55' W 122°25'0 0.0
2017-May-17 04:00N 37°55' W 122°25'0 0.0
2017-May-17 03:30N 37°55' W 122°25'0 0.0
2017-May-17 03:00N 37°55' W 122°25'0 0.0
2017-May-17 02:30N 37°55' W 122°25'0 0.0
2017-May-17 02:00N 37°55' W 122°25'0 0.0
2017-May-17 01:30N 37°55' W 122°25'0 0.0
2017-May-17 01:00N 37°55' W 122°25'0 0.0
2017-May-17 00:30N 37°55' W 122°25'0 0.0
2017-May-17 00:00N 37°55' W 122°25'0 0.0
2017-May-16 23:22N 37°55' W 122°25'0 0.0
2017-May-16 22:58N 37°55' W 122°25'0 0.0
2017-May-16 22:28N 37°55' W 122°25'0 0.0
2017-May-16 21:58N 37°55' W 122°25'0 0.0
2017-May-16 21:28N 37°55' W 122°25'0 0.0
2017-May-16 20:58N 37°55' W 122°25'0 0.0
2017-May-16 20:28N 37°55' W 122°25'0 0.0
2017-May-16 19:58N 37°55' W 122°25'0 0.0
2017-May-16 19:28N 37°55' W 122°25'0 0.0
2017-May-16 18:52N 37°55' W 122°25'0 0.0
2017-May-16 18:28N 37°55' W 122°25'0 0.0
2017-May-16 17:52N 37°55' W 122°25'0 0.0
2017-May-16 17:28N 37°55' W 122°25'0 0.0
2017-May-16 16:34N 37°55' W 122°25'0 0.0
2017-May-16 16:10N 37°55' W 122°25'0 0.0
2017-May-16 15:34N 37°55' W 122°25'0 0.0
2017-May-16 15:28N 37°55' W 122°25'0 0.0
2017-May-16 14:52N 37°55' W 122°25'0 0.0
2017-May-16 14:28N 37°55' W 122°25'0 0.1
2017-May-16 13:30N 37°55' W 122°24'0 0.6
2017-May-16 13:00N 37°55' W 122°25'2 4.0
2017-May-16 12:29N 37°57' W 122°26'4 8.7
2017-May-16 12:00N 38°01' W 122°23'4 8.6
2017-May-16 11:30N 38°03' W 122°18'4 8.4
2017-May-16 11:00N 38°04' W 122°13'4 0.2
2017-May-15 13:59N 38°02' W 122°08'4 6.1
2017-May-15 13:21N 38°04' W 122°12'2 6.9
2017-May-15 13:00N 38°04' W 122°15'3 6.9
2017-May-15 12:30N 38°03' W 122°20'4 7.1
2017-May-15 12:00N 38°01' W 122°24'4 7.1
2017-May-15 11:28N 37°58' W 122°26'3 5.5
2017-May-15 11:00N 37°55' W 122°25'0 0.0
2017-May-15 10:30N 37°55' W 122°25'0 0.4
2017-May-15 09:52N 37°55' W 122°25'0 0.0
2017-May-15 09:28N 37°55' W 122°25'0 0.0
2017-May-15 08:52N 37°55' W 122°25'0 0.0
2017-May-15 08:28N 37°55' W 122°25'0 0.0
2017-May-15 07:52N 37°55' W 122°25'0 0.0
2017-May-15 07:28N 37°55' W 122°25'0 0.0
2017-May-15 06:58N 37°55' W 122°25'0 0.0
2017-May-15 06:28N 37°55' W 122°25'0 0.0
2017-May-15 05:58N 37°55' W 122°25'0 0.0
2017-May-15 05:22N 37°55' W 122°25'0 0.0
2017-May-15 04:58N 37°55' W 122°25'0 0.0
2017-May-15 04:22N 37°55' W 122°25'0 0.0
2017-May-15 03:55N 37°55' W 122°25'0 0.0
2017-May-15 03:25N 37°55' W 122°25'0 0.0
2017-May-15 02:58N 37°55' W 122°25'0 0.0
2017-May-15 02:25N 37°55' W 122°25'0 0.0
2017-May-15 01:43N 37°55' W 122°25'0 0.0
2017-May-15 01:22N 37°55' W 122°25'0 0.0
2017-May-15 00:58N 37°55' W 122°25'0 0.0
2017-May-15 00:28N 37°55' W 122°25'0 0.0
2017-May-14 23:55N 37°55' W 122°25'0 0.0
2017-May-14 23:25N 37°55' W 122°25'0 0.0
2017-May-14 22:58N 37°55' W 122°25'0 0.0
2017-May-14 22:28N 37°55' W 122°25'0 0.0
2017-May-14 21:58N 37°55' W 122°25'0 0.0
2017-May-14 21:28N 37°55' W 122°25'0 0.0
2017-May-14 20:58N 37°55' W 122°25'0 0.0
2017-May-14 20:28N 37°55' W 122°25'0 0.0
2017-May-14 19:58N 37°55' W 122°25'0 0.0
2017-May-14 19:28N 37°55' W 122°25'0 0.0
2017-May-14 18:58N 37°55' W 122°25'0 0.0
2017-May-14 18:28N 37°55' W 122°25'0 0.0
2017-May-14 17:58N 37°55' W 122°25'0 0.0
2017-May-14 17:22N 37°55' W 122°25'0 0.0
2017-May-14 16:58N 37°55' W 122°25'0 0.0
2017-May-14 16:28N 37°55' W 122°25'0 0.0
2017-May-14 15:58N 37°55' W 122°25'0 0.0
2017-May-14 15:29N 37°55' W 122°25'0 0.5
2017-May-14 14:59N 37°55' W 122°25'1 1.6
2017-May-14 14:30N 37°55' W 122°25'6 6.5
2017-May-14 13:30N 37°48' W 122°23'2 3.8
2017-May-14 13:00N 37°46' W 122°23'0 0.0
2017-May-14 12:30N 37°46' W 122°23'0 0.0
2017-May-14 12:00N 37°46' W 122°23'0 0.0
2017-May-14 11:30N 37°46' W 122°23'0 0.0
2017-May-14 10:58N 37°46' W 122°23'0 0.0
2017-May-14 10:28N 37°46' W 122°23'0 0.0
2017-May-14 09:58N 37°46' W 122°23'0 0.0
2017-May-14 09:28N 37°46' W 122°23'0 0.0
2017-May-14 08:58N 37°46' W 122°23'0 0.0
2017-May-14 08:28N 37°46' W 122°23'0 0.0
2017-May-14 07:59N 37°46' W 122°23'0 0.0
2017-May-14 07:28N 37°46' W 122°23'0 0.0
2017-May-14 06:59N 37°46' W 122°23'0 0.0
2017-May-14 06:28N 37°46' W 122°23'0 0.0
2017-May-14 05:59N 37°46' W 122°23'0 0.0
2017-May-14 05:29N 37°46' W 122°23'0 0.0
2017-May-14 04:59N 37°46' W 122°23'0 0.0
2017-May-14 04:28N 37°46' W 122°23'0 0.0
2017-May-14 03:58N 37°46' W 122°23'0 0.0
2017-May-14 03:25N 37°46' W 122°23'0 0.0
2017-May-14 02:58N 37°46' W 122°23'0 0.0
2017-May-14 02:28N 37°46' W 122°23'0 0.0
2017-May-14 01:56N 37°46' W 122°23'  

Dump ship's entire track history